sensor_id;sensor_type;location;lat;lon;timestamp;temperature;humidity
8043;DHT22;4064;48.132;11.366;2023-05-07T00:00:20;11.90;99.90
8043;DHT22;4064;48.132;11.366;2023-05-07T00:02:46;11.90;99.90
8043;DHT22;4064;48.132;11.366;2023-05-07T00:05:12;11.90;99.90
8043;DHT22;4064;48.132;11.366;2023-05-07T00:07:38;11.80;99.90
8043;DHT22;4064;48.132;11.366;2023-05-07T00:10:05;11.90;99.90
8043;DHT22;4064;48.132;11.366;2023-05-07T00:12:32;11.80;99.90
8043;DHT22;4064;48.132;11.366;2023-05-07T00:15:05;11.80;99.90
8043;DHT22;4064;48.132;11.366;2023-05-07T00:17:33;11.90;99.90
8043;DHT22;4064;48.132;11.366;2023-05-07T00:19:59;11.90;99.90
8043;DHT22;4064;48.132;11.366;2023-05-07T00:22:25;11.90;99.90
8043;DHT22;4064;48.132;11.366;2023-05-07T00:24:51;11.90;99.90
8043;DHT22;4064;48.132;11.366;2023-05-07T00:27:17;11.90;99.90
8043;DHT22;4064;48.132;11.366;2023-05-07T00:29:43;11.80;99.90
8043;DHT22;4064;48.132;11.366;2023-05-07T00:32:09;11.80;99.90
8043;DHT22;4064;48.132;11.366;2023-05-07T00:34:34;11.90;99.90
8043;DHT22;4064;48.132;11.366;2023-05-07T00:37:01;11.80;99.90
8043;DHT22;4064;48.132;11.366;2023-05-07T00:39:27;11.80;99.90
8043;DHT22;4064;48.132;11.366;2023-05-07T00:41:53;11.80;99.90
8043;DHT22;4064;48.132;11.366;2023-05-07T00:44:19;11.70;99.90
8043;DHT22;4064;48.132;11.366;2023-05-07T00:46:44;11.70;99.90
8043;DHT22;4064;48.132;11.366;2023-05-07T00:49:14;11.70;99.90
8043;DHT22;4064;48.132;11.366;2023-05-07T00:51:40;11.70;99.90
8043;DHT22;4064;48.132;11.366;2023-05-07T00:54:06;11.70;99.90
8043;DHT22;4064;48.132;11.366;2023-05-07T00:56:33;11.80;99.90
8043;DHT22;4064;48.132;11.366;2023-05-07T00:58:59;11.70;99.90
8043;DHT22;4064;48.132;11.366;2023-05-07T01:01:25;11.70;99.90
8043;DHT22;4064;48.132;11.366;2023-05-07T01:03:52;11.70;99.90
8043;DHT22;4064;48.132;11.366;2023-05-07T01:06:18;11.70;99.90
8043;DHT22;4064;48.132;11.366;2023-05-07T01:08:47;11.70;99.90
8043;DHT22;4064;48.132;11.366;2023-05-07T01:11:13;11.70;99.90
8043;DHT22;4064;48.132;11.366;2023-05-07T01:13:40;11.60;99.90
8043;DHT22;4064;48.132;11.366;2023-05-07T01:16:08;11.50;99.90
8043;DHT22;4064;48.132;11.366;2023-05-07T01:18:35;11.60;99.90
8043;DHT22;4064;48.132;11.366;2023-05-07T01:21:01;11.60;99.90
8043;DHT22;4064;48.132;11.366;2023-05-07T01:23:30;11.60;99.90
8043;DHT22;4064;48.132;11.366;2023-05-07T01:25:56;11.60;99.90
8043;DHT22;4064;48.132;11.366;2023-05-07T01:28:22;11.60;99.90
8043;DHT22;4064;48.132;11.366;2023-05-07T01:30:53;11.60;99.90
8043;DHT22;4064;48.132;11.366;2023-05-07T01:33:22;11.50;99.90
8043;DHT22;4064;48.132;11.366;2023-05-07T01:35:51;11.60;99.90
8043;DHT22;4064;48.132;11.366;2023-05-07T01:38:18;11.60;99.90
8043;DHT22;4064;48.132;11.366;2023-05-07T01:40:44;11.60;99.90
8043;DHT22;4064;48.132;11.366;2023-05-07T01:43:11;11.60;99.90
8043;DHT22;4064;48.132;11.366;2023-05-07T01:45:36;11.60;99.90
8043;DHT22;4064;48.132;11.366;2023-05-07T01:48:03;11.50;99.90
8043;DHT22;4064;48.132;11.366;2023-05-07T01:50:30;11.50;99.90
8043;DHT22;4064;48.132;11.366;2023-05-07T01:52:58;11.50;99.90
8043;DHT22;4064;48.132;11.366;2023-05-07T01:55:24;11.50;99.90
8043;DHT22;4064;48.132;11.366;2023-05-07T01:57:50;11.50;99.90
8043;DHT22;4064;48.132;11.366;2023-05-07T02:00:16;11.40;99.90
8043;DHT22;4064;48.132;11.366;2023-05-07T02:02:43;11.40;99.90
8043;DHT22;4064;48.132;11.366;2023-05-07T02:05:08;11.30;99.90
8043;DHT22;4064;48.132;11.366;2023-05-07T02:07:35;11.30;99.90
8043;DHT22;4064;48.132;11.366;2023-05-07T02:10:00;11.30;99.90
8043;DHT22;4064;48.132;11.366;2023-05-07T02:12:26;11.20;99.90
8043;DHT22;4064;48.132;11.366;2023-05-07T02:14:52;11.20;99.90
8043;DHT22;4064;48.132;11.366;2023-05-07T02:17:18;11.20;99.90
8043;DHT22;4064;48.132;11.366;2023-05-07T02:19:44;11.30;99.90
8043;DHT22;4064;48.132;11.366;2023-05-07T02:22:11;11.30;99.90
8043;DHT22;4064;48.132;11.366;2023-05-07T02:24:37;11.30;99.90
8043;DHT22;4064;48.132;11.366;2023-05-07T02:27:02;11.30;99.90
8043;DHT22;4064;48.132;11.366;2023-05-07T02:29:29;11.30;99.90
8043;DHT22;4064;48.132;11.366;2023-05-07T02:31:55;11.30;99.90
8043;DHT22;4064;48.132;11.366;2023-05-07T02:34:21;11.30;99.90
8043;DHT22;4064;48.132;11.366;2023-05-07T02:36:47;11.30;99.90
8043;DHT22;4064;48.132;11.366;2023-05-07T02:39:14;11.30;99.90
8043;DHT22;4064;48.132;11.366;2023-05-07T02:41:41;11.20;99.90
8043;DHT22;4064;48.132;11.366;2023-05-07T02:44:07;11.20;99.90
8043;DHT22;4064;48.132;11.366;2023-05-07T02:46:33;11.10;99.90
8043;DHT22;4064;48.132;11.366;2023-05-07T02:48:59;11.10;99.90
8043;DHT22;4064;48.132;11.366;2023-05-07T02:51:25;11.20;99.90
8043;DHT22;4064;48.132;11.366;2023-05-07T02:53:52;11.10;99.90
8043;DHT22;4064;48.132;11.366;2023-05-07T02:56:18;11.10;99.90
8043;DHT22;4064;48.132;11.366;2023-05-07T02:58:43;11.10;99.90
8043;DHT22;4064;48.132;11.366;2023-05-07T03:01:10;11.10;99.90
8043;DHT22;4064;48.132;11.366;2023-05-07T03:03:36;11.10;99.90
8043;DHT22;4064;48.132;11.366;2023-05-07T03:06:02;11.10;99.90
8043;DHT22;4064;48.132;11.366;2023-05-07T03:08:28;11.10;99.90
8043;DHT22;4064;48.132;11.366;2023-05-07T03:10:54;11.10;99.90
8043;DHT22;4064;48.132;11.366;2023-05-07T03:13:20;11.10;99.90
8043;DHT22;4064;48.132;11.366;2023-05-07T03:15:46;11.10;99.90
8043;DHT22;4064;48.132;11.366;2023-05-07T03:18:12;11.00;99.90
8043;DHT22;4064;48.132;11.366;2023-05-07T03:20:38;11.00;99.90
8043;DHT22;4064;48.132;11.366;2023-05-07T03:23:04;10.90;99.90
8043;DHT22;4064;48.132;11.366;2023-05-07T03:25:30;11.00;99.90
8043;DHT22;4064;48.132;11.366;2023-05-07T03:27:56;11.00;99.90
8043;DHT22;4064;48.132;11.366;2023-05-07T03:30:22;10.90;99.90
8043;DHT22;4064;48.132;11.366;2023-05-07T03:32:47;10.90;99.90
8043;DHT22;4064;48.132;11.366;2023-05-07T03:35:14;10.80;99.90
8043;DHT22;4064;48.132;11.366;2023-05-07T03:37:40;10.80;99.90
8043;DHT22;4064;48.132;11.366;2023-05-07T03:40:06;10.80;99.90
8043;DHT22;4064;48.132;11.366;2023-05-07T03:42:33;10.80;99.90
8043;DHT22;4064;48.132;11.366;2023-05-07T03:44:59;10.80;99.90
8043;DHT22;4064;48.132;11.366;2023-05-07T03:47:25;10.80;99.90
8043;DHT22;4064;48.132;11.366;2023-05-07T03:49:51;10.80;99.90
8043;DHT22;4064;48.132;11.366;2023-05-07T03:52:18;10.80;99.90
8043;DHT22;4064;48.132;11.366;2023-05-07T03:54:49;10.80;99.90
8043;DHT22;4064;48.132;11.366;2023-05-07T03:57:15;10.80;99.90
8043;DHT22;4064;48.132;11.366;2023-05-07T03:59:41;10.80;99.90
8043;DHT22;4064;48.132;11.366;2023-05-07T04:02:07;10.80;99.90
8043;DHT22;4064;48.132;11.366;2023-05-07T04:04:32;10.80;99.90
8043;DHT22;4064;48.132;11.366;2023-05-07T04:06:58;10.70;99.90
8043;DHT22;4064;48.132;11.366;2023-05-07T04:09:25;10.70;99.90
8043;DHT22;4064;48.132;11.366;2023-05-07T04:11:51;10.70;99.90
8043;DHT22;4064;48.132;11.366;2023-05-07T04:14:17;10.70;99.90
8043;DHT22;4064;48.132;11.366;2023-05-07T04:16:43;10.70;99.90
8043;DHT22;4064;48.132;11.366;2023-05-07T04:19:09;10.70;99.90
8043;DHT22;4064;48.132;11.366;2023-05-07T04:21:35;10.70;99.90
8043;DHT22;4064;48.132;11.366;2023-05-07T04:24:02;10.70;99.90
8043;DHT22;4064;48.132;11.366;2023-05-07T04:26:28;10.70;99.90
8043;DHT22;4064;48.132;11.366;2023-05-07T04:28:53;10.70;99.90
8043;DHT22;4064;48.132;11.366;2023-05-07T04:31:19;10.70;99.90
8043;DHT22;4064;48.132;11.366;2023-05-07T04:33:45;10.70;99.90
8043;DHT22;4064;48.132;11.366;2023-05-07T04:36:10;10.70;99.90
8043;DHT22;4064;48.132;11.366;2023-05-07T04:38:36;10.70;99.90
8043;DHT22;4064;48.132;11.366;2023-05-07T04:41:04;10.80;99.90
8043;DHT22;4064;48.132;11.366;2023-05-07T04:43:30;10.90;99.90
8043;DHT22;4064;48.132;11.366;2023-05-07T04:45:56;10.90;99.90
8043;DHT22;4064;48.132;11.366;2023-05-07T04:48:22;11.00;99.90
8043;DHT22;4064;48.132;11.366;2023-05-07T04:50:49;11.10;99.90
8043;DHT22;4064;48.132;11.366;2023-05-07T04:53:15;11.10;99.90
8043;DHT22;4064;48.132;11.366;2023-05-07T04:55:41;11.10;99.90
8043;DHT22;4064;48.132;11.366;2023-05-07T04:58:08;11.10;99.90
8043;DHT22;4064;48.132;11.366;2023-05-07T05:00:34;11.20;99.90
8043;DHT22;4064;48.132;11.366;2023-05-07T05:02:59;11.20;99.90
8043;DHT22;4064;48.132;11.366;2023-05-07T05:05:25;11.40;99.90
8043;DHT22;4064;48.132;11.366;2023-05-07T05:07:52;11.50;99.90
8043;DHT22;4064;48.132;11.366;2023-05-07T05:10:18;12.20;99.90
8043;DHT22;4064;48.132;11.366;2023-05-07T05:12:44;13.00;99.90
8043;DHT22;4064;48.132;11.366;2023-05-07T05:15:11;13.70;99.90
8043;DHT22;4064;48.132;11.366;2023-05-07T05:17:38;14.70;99.90
8043;DHT22;4064;48.132;11.366;2023-05-07T05:20:06;16.20;99.90
8043;DHT22;4064;48.132;11.366;2023-05-07T05:22:33;17.40;99.90
8043;DHT22;4064;48.132;11.366;2023-05-07T05:25:04;18.40;99.90
8043;DHT22;4064;48.132;11.366;2023-05-07T05:27:30;19.20;99.90
8043;DHT22;4064;48.132;11.366;2023-05-07T05:29:56;19.30;99.90
8043;DHT22;4064;48.132;11.366;2023-05-07T05:32:22;18.70;99.90
8043;DHT22;4064;48.132;11.366;2023-05-07T05:34:48;18.30;99.90
8043;DHT22;4064;48.132;11.366;2023-05-07T05:37:13;18.00;99.90
8043;DHT22;4064;48.132;11.366;2023-05-07T05:39:39;17.60;99.90
8043;DHT22;4064;48.132;11.366;2023-05-07T05:42:05;17.30;99.90
8043;DHT22;4064;48.132;11.366;2023-05-07T05:44:31;17.10;99.90
8043;DHT22;4064;48.132;11.366;2023-05-07T05:46:57;16.80;99.90
8043;DHT22;4064;48.132;11.366;2023-05-07T05:49:24;16.60;99.90
8043;DHT22;4064;48.132;11.366;2023-05-07T05:51:50;16.60;99.90
8043;DHT22;4064;48.132;11.366;2023-05-07T05:54:17;16.50;99.90
8043;DHT22;4064;48.132;11.366;2023-05-07T05:56:42;16.50;99.90
8043;DHT22;4064;48.132;11.366;2023-05-07T05:59:09;16.50;99.90
8043;DHT22;4064;48.132;11.366;2023-05-07T06:01:35;16.50;99.90
8043;DHT22;4064;48.132;11.366;2023-05-07T06:04:01;16.60;99.90
8043;DHT22;4064;48.132;11.366;2023-05-07T06:06:27;16.70;99.90
8043;DHT22;4064;48.132;11.366;2023-05-07T06:08:53;16.80;99.90
8043;DHT22;4064;48.132;11.366;2023-05-07T06:11:19;16.90;99.90
8043;DHT22;4064;48.132;11.366;2023-05-07T06:13:46;16.90;99.90
8043;DHT22;4064;48.132;11.366;2023-05-07T06:16:12;16.90;99.90
8043;DHT22;4064;48.132;11.366;2023-05-07T06:18:37;17.00;99.90
8043;DHT22;4064;48.132;11.366;2023-05-07T06:21:03;17.10;99.90
8043;DHT22;4064;48.132;11.366;2023-05-07T06:23:29;17.20;99.90
8043;DHT22;4064;48.132;11.366;2023-05-07T06:25:55;17.40;99.90
8043;DHT22;4064;48.132;11.366;2023-05-07T06:28:21;17.50;99.90
8043;DHT22;4064;48.132;11.366;2023-05-07T06:30:47;17.60;99.90
8043;DHT22;4064;48.132;11.366;2023-05-07T06:33:15;17.80;99.90
8043;DHT22;4064;48.132;11.366;2023-05-07T06:35:41;17.90;99.90
8043;DHT22;4064;48.132;11.366;2023-05-07T06:38:08;18.10;99.90
8043;DHT22;4064;48.132;11.366;2023-05-07T06:40:33;18.10;99.90
8043;DHT22;4064;48.132;11.366;2023-05-07T06:42:59;18.30;99.90
8043;DHT22;4064;48.132;11.366;2023-05-07T06:45:25;18.50;99.90
8043;DHT22;4064;48.132;11.366;2023-05-07T06:47:51;18.80;99.90
8043;DHT22;4064;48.132;11.366;2023-05-07T06:50:17;19.00;99.90
8043;DHT22;4064;48.132;11.366;2023-05-07T06:52:43;19.20;99.90
8043;DHT22;4064;48.132;11.366;2023-05-07T06:55:09;19.40;99.90
8043;DHT22;4064;48.132;11.366;2023-05-07T06:57:36;19.60;99.90
8043;DHT22;4064;48.132;11.366;2023-05-07T07:00:05;19.80;99.90
8043;DHT22;4064;48.132;11.366;2023-05-07T07:02:34;19.90;99.90
8043;DHT22;4064;48.132;11.366;2023-05-07T07:05:00;20.20;99.90
8043;DHT22;4064;48.132;11.366;2023-05-07T07:07:25;20.40;99.90
8043;DHT22;4064;48.132;11.366;2023-05-07T07:09:51;20.60;99.90
8043;DHT22;4064;48.132;11.366;2023-05-07T07:12:17;20.80;99.90
8043;DHT22;4064;48.132;11.366;2023-05-07T07:14:43;21.00;99.90
8043;DHT22;4064;48.132;11.366;2023-05-07T07:17:08;21.10;99.90
8043;DHT22;4064;48.132;11.366;2023-05-07T07:19:35;21.30;99.90
8043;DHT22;4064;48.132;11.366;2023-05-07T07:22:01;21.70;99.90
8043;DHT22;4064;48.132;11.366;2023-05-07T07:24:26;22.30;99.90
8043;DHT22;4064;48.132;11.366;2023-05-07T07:26:52;23.10;99.10
8043;DHT22;4064;48.132;11.366;2023-05-07T07:29:18;24.30;98.00
8043;DHT22;4064;48.132;11.366;2023-05-07T07:31:44;25.50;93.10
8043;DHT22;4064;48.132;11.366;2023-05-07T07:34:10;26.50;90.60
8043;DHT22;4064;48.132;11.366;2023-05-07T07:36:36;27.40;86.30
8043;DHT22;4064;48.132;11.366;2023-05-07T07:39:02;27.90;78.10
8043;DHT22;4064;48.132;11.366;2023-05-07T07:41:28;28.20;72.70
8043;DHT22;4064;48.132;11.366;2023-05-07T07:43:54;28.40;71.90
8043;DHT22;4064;48.132;11.366;2023-05-07T07:46:20;28.10;68.80
8043;DHT22;4064;48.132;11.366;2023-05-07T07:48:45;27.90;68.90
8043;DHT22;4064;48.132;11.366;2023-05-07T07:51:11;27.90;67.80
8043;DHT22;4064;48.132;11.366;2023-05-07T07:53:37;28.30;65.50
8043;DHT22;4064;48.132;11.366;2023-05-07T07:56:03;29.00;64.60
8043;DHT22;4064;48.132;11.366;2023-05-07T07:58:29;29.70;61.90
8043;DHT22;4064;48.132;11.366;2023-05-07T08:00:55;30.40;59.30
8043;DHT22;4064;48.132;11.366;2023-05-07T08:03:21;30.80;58.00
8043;DHT22;4064;48.132;11.366;2023-05-07T08:05:49;31.20;55.70
8043;DHT22;4064;48.132;11.366;2023-05-07T08:08:16;31.40;54.00
8043;DHT22;4064;48.132;11.366;2023-05-07T08:10:42;31.40;54.40
8043;DHT22;4064;48.132;11.366;2023-05-07T08:13:11;31.30;53.90
8043;DHT22;4064;48.132;11.366;2023-05-07T08:15:38;31.30;51.90
8043;DHT22;4064;48.132;11.366;2023-05-07T08:18:05;31.10;52.00
8043;DHT22;4064;48.132;11.366;2023-05-07T08:20:31;31.30;51.50
8043;DHT22;4064;48.132;11.366;2023-05-07T08:22:59;31.40;51.50
8043;DHT22;4064;48.132;11.366;2023-05-07T08:25:25;31.40;51.30
8043;DHT22;4064;48.132;11.366;2023-05-07T08:27:53;31.40;51.00
8043;DHT22;4064;48.132;11.366;2023-05-07T08:30:19;31.60;49.90
8043;DHT22;4064;48.132;11.366;2023-05-07T08:32:46;31.70;49.00
8043;DHT22;4064;48.132;11.366;2023-05-07T08:35:14;31.70;49.60
8043;DHT22;4064;48.132;11.366;2023-05-07T08:37:41;31.90;49.20
8043;DHT22;4064;48.132;11.366;2023-05-07T08:40:08;31.60;47.40
8043;DHT22;4064;48.132;11.366;2023-05-07T08:42:36;31.40;47.90
8043;DHT22;4064;48.132;11.366;2023-05-07T08:45:10;31.20;49.30
8043;DHT22;4064;48.132;11.366;2023-05-07T08:47:58;31.00;48.40
8043;DHT22;4064;48.132;11.366;2023-05-07T08:50:27;30.70;47.70
8043;DHT22;4064;48.132;11.366;2023-05-07T08:52:53;30.30;48.60
8043;DHT22;4064;48.132;11.366;2023-05-07T08:55:20;29.90;48.20
8043;DHT22;4064;48.132;11.366;2023-05-07T08:57:46;29.60;49.30
8043;DHT22;4064;48.132;11.366;2023-05-07T09:00:13;29.50;49.50
8043;DHT22;4064;48.132;11.366;2023-05-07T09:02:40;29.40;49.40
8043;DHT22;4064;48.132;11.366;2023-05-07T09:05:08;29.10;50.90
8043;DHT22;4064;48.132;11.366;2023-05-07T09:07:35;29.00;51.60
8043;DHT22;4064;48.132;11.366;2023-05-07T09:10:04;29.00;52.10
8043;DHT22;4064;48.132;11.366;2023-05-07T09:12:31;28.80;51.50
8043;DHT22;4064;48.132;11.366;2023-05-07T09:14:57;28.90;51.00
8043;DHT22;4064;48.132;11.366;2023-05-07T09:17:24;28.70;52.00
8043;DHT22;4064;48.132;11.366;2023-05-07T09:19:50;28.50;52.50
8043;DHT22;4064;48.132;11.366;2023-05-07T09:22:17;28.50;52.50
8043;DHT22;4064;48.132;11.366;2023-05-07T09:25:06;28.30;52.20
8043;DHT22;4064;48.132;11.366;2023-05-07T09:27:32;28.20;50.10
8043;DHT22;4064;48.132;11.366;2023-05-07T09:29:58;28.00;51.60
8043;DHT22;4064;48.132;11.366;2023-05-07T09:32:25;27.90;52.30
8043;DHT22;4064;48.132;11.366;2023-05-07T09:34:53;27.90;51.50
8043;DHT22;4064;48.132;11.366;2023-05-07T09:37:19;27.90;51.20
8043;DHT22;4064;48.132;11.366;2023-05-07T09:39:48;27.70;52.10
8043;DHT22;4064;48.132;11.366;2023-05-07T09:42:15;27.80;51.90
8043;DHT22;4064;48.132;11.366;2023-05-07T09:44:43;27.60;52.00
8043;DHT22;4064;48.132;11.366;2023-05-07T09:47:10;27.60;51.90
8043;DHT22;4064;48.132;11.366;2023-05-07T09:49:39;27.60;50.50
8043;DHT22;4064;48.132;11.366;2023-05-07T09:52:07;27.40;51.00
8043;DHT22;4064;48.132;11.366;2023-05-07T09:54:36;27.30;51.30
8043;DHT22;4064;48.132;11.366;2023-05-07T09:57:04;27.20;51.50
8043;DHT22;4064;48.132;11.366;2023-05-07T09:59:32;27.10;52.60
8043;DHT22;4064;48.132;11.366;2023-05-07T10:02:00;27.10;51.10
8043;DHT22;4064;48.132;11.366;2023-05-07T10:04:27;27.00;50.50
8043;DHT22;4064;48.132;11.366;2023-05-07T10:06:54;26.90;51.40
8043;DHT22;4064;48.132;11.366;2023-05-07T10:09:21;26.70;51.10
8043;DHT22;4064;48.132;11.366;2023-05-07T10:11:52;26.40;52.40
8043;DHT22;4064;48.132;11.366;2023-05-07T10:14:22;26.30;53.20
8043;DHT22;4064;48.132;11.366;2023-05-07T10:16:49;26.20;53.80
8043;DHT22;4064;48.132;11.366;2023-05-07T10:19:15;26.20;53.80
8043;DHT22;4064;48.132;11.366;2023-05-07T10:21:54;26.20;53.90
8043;DHT22;4064;48.132;11.366;2023-05-07T10:24:31;26.30;53.70
8043;DHT22;4064;48.132;11.366;2023-05-07T10:27:01;26.30;54.10
8043;DHT22;4064;48.132;11.366;2023-05-07T10:29:34;26.40;53.90
8043;DHT22;4064;48.132;11.366;2023-05-07T10:32:49;26.60;52.50
8043;DHT22;4064;48.132;11.366;2023-05-07T10:35:17;26.80;52.90
8043;DHT22;4064;48.132;11.366;2023-05-07T10:37:44;27.00;52.80
8043;DHT22;4064;48.132;11.366;2023-05-07T10:40:13;26.90;52.40
8043;DHT22;4064;48.132;11.366;2023-05-07T10:42:56;26.90;52.20
8043;DHT22;4064;48.132;11.366;2023-05-07T10:45:26;26.50;52.30
8043;DHT22;4064;48.132;11.366;2023-05-07T10:48:14;26.50;52.90
8043;DHT22;4064;48.132;11.366;2023-05-07T10:50:44;26.50;52.70
8043;DHT22;4064;48.132;11.366;2023-05-07T10:55:44;26.20;52.40
8043;DHT22;4064;48.132;11.366;2023-05-07T10:58:25;26.00;52.80
8043;DHT22;4064;48.132;11.366;2023-05-07T11:00:57;25.90;53.10
8043;DHT22;4064;48.132;11.366;2023-05-07T11:03:23;25.90;53.10
8043;DHT22;4064;48.132;11.366;2023-05-07T11:06:09;26.00;52.40
8043;DHT22;4064;48.132;11.366;2023-05-07T11:08:57;26.10;53.00
8043;DHT22;4064;48.132;11.366;2023-05-07T11:11:49;26.20;52.10
8043;DHT22;4064;48.132;11.366;2023-05-07T11:17:06;26.40;53.50
8043;DHT22;4064;48.132;11.366;2023-05-07T11:19:52;26.50;52.60
8043;DHT22;4064;48.132;11.366;2023-05-07T11:25:02;26.40;52.20
8043;DHT22;4064;48.132;11.366;2023-05-07T11:27:29;26.20;53.40
8043;DHT22;4064;48.132;11.366;2023-05-07T11:29:56;26.10;53.10
8043;DHT22;4064;48.132;11.366;2023-05-07T11:32:28;26.20;53.20
8043;DHT22;4064;48.132;11.366;2023-05-07T11:34:55;26.20;53.60
8043;DHT22;4064;48.132;11.366;2023-05-07T11:37:23;26.10;52.70
8043;DHT22;4064;48.132;11.366;2023-05-07T11:39:50;26.30;53.70
8043;DHT22;4064;48.132;11.366;2023-05-07T11:42:29;26.30;53.80
8043;DHT22;4064;48.132;11.366;2023-05-07T11:44:55;26.50;54.30
8043;DHT22;4064;48.132;11.366;2023-05-07T11:47:21;26.60;53.70
8043;DHT22;4064;48.132;11.366;2023-05-07T11:49:49;26.60;52.20
8043;DHT22;4064;48.132;11.366;2023-05-07T11:52:16;26.60;52.80
8043;DHT22;4064;48.132;11.366;2023-05-07T11:54:52;26.50;53.10
8043;DHT22;4064;48.132;11.366;2023-05-07T11:57:18;26.40;53.50
8043;DHT22;4064;48.132;11.366;2023-05-07T11:59:45;26.10;53.00
8043;DHT22;4064;48.132;11.366;2023-05-07T12:02:14;26.00;53.90
8043;DHT22;4064;48.132;11.366;2023-05-07T12:04:41;25.90;54.70
8043;DHT22;4064;48.132;11.366;2023-05-07T12:07:15;25.90;54.40
8043;DHT22;4064;48.132;11.366;2023-05-07T12:09:45;26.10;54.80
8043;DHT22;4064;48.132;11.366;2023-05-07T12:12:11;26.10;54.80
8043;DHT22;4064;48.132;11.366;2023-05-07T12:14:39;26.10;54.70
8043;DHT22;4064;48.132;11.366;2023-05-07T12:17:06;26.30;55.10
8043;DHT22;4064;48.132;11.366;2023-05-07T12:19:34;26.40;54.80
8043;DHT22;4064;48.132;11.366;2023-05-07T12:22:02;26.50;54.10
8043;DHT22;4064;48.132;11.366;2023-05-07T12:24:28;26.50;54.20
8043;DHT22;4064;48.132;11.366;2023-05-07T12:26:53;26.50;54.20
8043;DHT22;4064;48.132;11.366;2023-05-07T12:29:22;26.60;54.90
8043;DHT22;4064;48.132;11.366;2023-05-07T12:31:50;26.60;53.20
8043;DHT22;4064;48.132;11.366;2023-05-07T12:34:15;26.50;54.70
8043;DHT22;4064;48.132;11.366;2023-05-07T12:36:41;26.50;53.30
8043;DHT22;4064;48.132;11.366;2023-05-07T12:39:08;26.40;54.30
8043;DHT22;4064;48.132;11.366;2023-05-07T12:41:53;26.30;53.80
8043;DHT22;4064;48.132;11.366;2023-05-07T12:44:22;26.10;52.50
8043;DHT22;4064;48.132;11.366;2023-05-07T12:46:49;25.90;54.40
8043;DHT22;4064;48.132;11.366;2023-05-07T12:49:16;25.80;53.70
8043;DHT22;4064;48.132;11.366;2023-05-07T12:51:43;25.70;54.60
8043;DHT22;4064;48.132;11.366;2023-05-07T12:54:10;25.70;54.70
8043;DHT22;4064;48.132;11.366;2023-05-07T12:56:36;25.70;54.80
8043;DHT22;4064;48.132;11.366;2023-05-07T12:59:02;25.60;54.10
8043;DHT22;4064;48.132;11.366;2023-05-07T13:01:29;25.50;54.20
8043;DHT22;4064;48.132;11.366;2023-05-07T13:04:03;25.30;54.00
8043;DHT22;4064;48.132;11.366;2023-05-07T13:06:30;25.30;53.70
8043;DHT22;4064;48.132;11.366;2023-05-07T13:08:57;25.10;53.70
8043;DHT22;4064;48.132;11.366;2023-05-07T13:11:22;25.00;54.60
8043;DHT22;4064;48.132;11.366;2023-05-07T13:13:48;25.00;54.50
8043;DHT22;4064;48.132;11.366;2023-05-07T13:16:15;25.10;54.30
8043;DHT22;4064;48.132;11.366;2023-05-07T13:18:40;25.20;53.80
8043;DHT22;4064;48.132;11.366;2023-05-07T13:21:09;25.50;54.50
8043;DHT22;4064;48.132;11.366;2023-05-07T13:23:35;25.70;54.50
8043;DHT22;4064;48.132;11.366;2023-05-07T13:26:01;25.70;53.90
8043;DHT22;4064;48.132;11.366;2023-05-07T13:28:27;25.80;53.40
8043;DHT22;4064;48.132;11.366;2023-05-07T13:30:53;25.80;53.70
8043;DHT22;4064;48.132;11.366;2023-05-07T13:33:20;25.80;53.40
8043;DHT22;4064;48.132;11.366;2023-05-07T13:35:45;25.70;53.70
8043;DHT22;4064;48.132;11.366;2023-05-07T13:38:11;25.70;53.30
8043;DHT22;4064;48.132;11.366;2023-05-07T13:40:37;25.80;52.30
8043;DHT22;4064;48.132;11.366;2023-05-07T13:43:05;25.80;52.80
8043;DHT22;4064;48.132;11.366;2023-05-07T13:45:31;25.70;52.70
8043;DHT22;4064;48.132;11.366;2023-05-07T13:47:57;25.60;52.00
8043;DHT22;4064;48.132;11.366;2023-05-07T13:50:23;25.50;52.60
8043;DHT22;4064;48.132;11.366;2023-05-07T13:52:49;25.40;52.10
8043;DHT22;4064;48.132;11.366;2023-05-07T13:55:37;25.20;52.10
8043;DHT22;4064;48.132;11.366;2023-05-07T13:58:03;25.00;53.10
8043;DHT22;4064;48.132;11.366;2023-05-07T14:00:29;24.90;53.20
8043;DHT22;4064;48.132;11.366;2023-05-07T14:02:56;24.60;53.00
8043;DHT22;4064;48.132;11.366;2023-05-07T14:05:23;24.40;53.50
8043;DHT22;4064;48.132;11.366;2023-05-07T14:07:51;24.20;53.30
8043;DHT22;4064;48.132;11.366;2023-05-07T14:10:18;24.00;54.00
8043;DHT22;4064;48.132;11.366;2023-05-07T14:12:45;24.00;53.90
8043;DHT22;4064;48.132;11.366;2023-05-07T14:15:12;23.80;53.80
8043;DHT22;4064;48.132;11.366;2023-05-07T14:17:37;23.70;54.90
8043;DHT22;4064;48.132;11.366;2023-05-07T14:20:04;23.70;55.10
8043;DHT22;4064;48.132;11.366;2023-05-07T14:22:31;23.70;54.80
8043;DHT22;4064;48.132;11.366;2023-05-07T14:24:57;23.70;55.30
8043;DHT22;4064;48.132;11.366;2023-05-07T14:27:23;23.50;55.80
8043;DHT22;4064;48.132;11.366;2023-05-07T14:29:49;23.40;56.30
8043;DHT22;4064;48.132;11.366;2023-05-07T14:32:19;23.30;57.00
8043;DHT22;4064;48.132;11.366;2023-05-07T14:34:46;23.30;57.10
8043;DHT22;4064;48.132;11.366;2023-05-07T14:37:14;23.20;57.70
8043;DHT22;4064;48.132;11.366;2023-05-07T14:39:40;23.10;56.90
8043;DHT22;4064;48.132;11.366;2023-05-07T14:42:06;23.10;58.10
8043;DHT22;4064;48.132;11.366;2023-05-07T14:44:34;23.00;57.60
8043;DHT22;4064;48.132;11.366;2023-05-07T14:47:00;22.80;57.70
8043;DHT22;4064;48.132;11.366;2023-05-07T14:49:26;22.70;58.10
8043;DHT22;4064;48.132;11.366;2023-05-07T14:51:52;22.50;58.20
8043;DHT22;4064;48.132;11.366;2023-05-07T14:54:19;22.40;58.80
8043;DHT22;4064;48.132;11.366;2023-05-07T14:56:45;22.40;59.60
8043;DHT22;4064;48.132;11.366;2023-05-07T14:59:11;22.30;60.00
8043;DHT22;4064;48.132;11.366;2023-05-07T15:01:38;22.20;60.50
8043;DHT22;4064;48.132;11.366;2023-05-07T15:04:05;22.10;60.00
8043;DHT22;4064;48.132;11.366;2023-05-07T15:06:32;22.00;60.20
8043;DHT22;4064;48.132;11.366;2023-05-07T15:08:58;21.90;61.30
8043;DHT22;4064;48.132;11.366;2023-05-07T15:11:25;21.80;60.80
8043;DHT22;4064;48.132;11.366;2023-05-07T15:13:51;21.70;60.70
8043;DHT22;4064;48.132;11.366;2023-05-07T15:16:17;21.60;60.70
8043;DHT22;4064;48.132;11.366;2023-05-07T15:18:43;21.50;61.10
8043;DHT22;4064;48.132;11.366;2023-05-07T15:21:09;21.40;61.80
8043;DHT22;4064;48.132;11.366;2023-05-07T15:23:36;21.40;62.10
8043;DHT22;4064;48.132;11.366;2023-05-07T15:26:02;21.30;63.10
8043;DHT22;4064;48.132;11.366;2023-05-07T15:28:28;21.30;63.00
8043;DHT22;4064;48.132;11.366;2023-05-07T15:30:57;21.20;62.50
8043;DHT22;4064;48.132;11.366;2023-05-07T15:33:23;21.20;62.80
8043;DHT22;4064;48.132;11.366;2023-05-07T15:35:49;21.10;62.80
8043;DHT22;4064;48.132;11.366;2023-05-07T15:38:15;21.00;62.70
8043;DHT22;4064;48.132;11.366;2023-05-07T15:40:41;21.00;63.30
8043;DHT22;4064;48.132;11.366;2023-05-07T15:43:09;20.90;62.80
8043;DHT22;4064;48.132;11.366;2023-05-07T15:45:40;20.80;62.40
8043;DHT22;4064;48.132;11.366;2023-05-07T15:48:07;20.80;62.70
8043;DHT22;4064;48.132;11.366;2023-05-07T15:50:33;20.80;62.70
8043;DHT22;4064;48.132;11.366;2023-05-07T15:52:59;20.70;63.00